createdAt,value
2018-07-20T00:00:22.014Z,13.00
2018-07-20T00:02:50.468Z,12.63
2018-07-20T00:05:18.999Z,10.17
2018-07-20T00:07:47.458Z,10.43
2018-07-20T00:10:16.028Z,9.40
2018-07-20T00:12:44.490Z,9.43
2018-07-20T00:15:13.167Z,10.90
2018-07-20T00:17:41.757Z,10.73
2018-07-20T00:20:10.270Z,11.63
2018-07-20T00:22:38.779Z,11.90
2018-07-20T00:25:07.359Z,12.83
2018-07-20T00:27:35.879Z,14.50
2018-07-20T00:30:04.817Z,9.80
2018-07-20T00:32:33.333Z,8.23
2018-07-20T00:35:01.779Z,10.90
2018-07-20T00:37:30.270Z,9.80
2018-07-20T00:39:58.835Z,9.87
2018-07-20T00:42:27.341Z,10.50
2018-07-20T00:44:55.798Z,9.67
2018-07-20T00:47:24.328Z,10.40
2018-07-20T00:49:52.800Z,10.57
2018-07-20T00:52:21.292Z,9.97
2018-07-20T00:54:49.795Z,9.27
2018-07-20T00:57:17.950Z,9.47
2018-07-20T00:59:46.457Z,9.90
2018-07-20T01:02:14.944Z,10.10
2018-07-20T01:04:43.413Z,9.67
2018-07-20T01:07:11.941Z,8.40
2018-07-20T01:09:40.450Z,7.63
2018-07-20T01:12:09.051Z,8.93
2018-07-20T01:14:37.216Z,8.60
2018-07-20T01:17:05.729Z,7.70
2018-07-20T01:19:34.244Z,8.80
2018-07-20T01:22:02.777Z,10.27
2018-07-20T01:24:31.384Z,9.60
2018-07-20T01:26:59.874Z,11.73
2018-07-20T01:29:28.380Z,13.00
2018-07-20T01:31:56.851Z,11.50
2018-07-20T01:34:25.390Z,15.77
2018-07-20T01:36:53.603Z,20.33
2018-07-20T01:39:22.132Z,19.10
2018-07-20T01:41:50.620Z,21.37
2018-07-20T01:44:19.122Z,20.57
2018-07-20T01:46:47.669Z,30.17
2018-07-20T01:49:16.142Z,33.93
2018-07-20T01:51:44.693Z,43.97
2018-07-20T01:54:13.198Z,40.97
2018-07-20T01:56:41.723Z,46.23
2018-07-20T01:59:10.234Z,52.23
2018-07-20T02:01:38.769Z,54.63
2018-07-20T02:04:07.707Z,57.13
2018-07-20T02:06:36.189Z,55.60
2018-07-20T02:09:07.944Z,63.13
2018-07-20T02:11:36.116Z,57.03
2018-07-20T02:14:04.734Z,144.10
2018-07-20T02:16:33.264Z,146.20
2018-07-20T02:19:01.743Z,137.63
2018-07-20T02:21:30.465Z,159.47
2018-07-20T02:23:58.689Z,157.20
2018-07-20T02:26:27.265Z,162.67
2018-07-20T02:28:55.864Z,165.20
2018-07-20T02:31:24.836Z,169.53
2018-07-20T02:33:53.401Z,176.43
2018-07-20T02:36:21.939Z,175.00
2018-07-20T02:38:50.713Z,174.93
2018-07-20T02:41:19.263Z,176.97
2018-07-20T02:43:47.763Z,185.07
2018-07-20T02:46:16.301Z,178.43
2018-07-20T02:48:44.839Z,173.87
2018-07-20T02:51:13.336Z,174.33
2018-07-20T02:53:41.856Z,179.27
2018-07-20T02:56:10.363Z,168.93
2018-07-20T02:58:38.828Z,175.27
2018-07-20T03:01:07.448Z,161.53
2018-07-20T03:03:36.029Z,161.13
2018-07-20T03:06:04.507Z,159.70
2018-07-20T03:08:33.036Z,155.60
2018-07-20T03:11:01.235Z,150.07
2018-07-20T03:13:29.837Z,147.77
2018-07-20T03:15:58.312Z,134.50
2018-07-20T03:18:26.841Z,134.50
2018-07-20T03:20:55.367Z,120.47
2018-07-20T03:23:23.852Z,122.03
2018-07-20T03:25:52.397Z,101.43
2018-07-20T03:28:20.859Z,98.93
2018-07-20T03:30:49.417Z,95.20
2018-07-20T03:33:17.871Z,82.23
2018-07-20T03:35:46.398Z,50.73
2018-07-20T03:38:14.965Z,56.83
2018-07-20T03:40:43.552Z,46.20
2018-07-20T03:43:12.051Z,44.33
2018-07-20T03:45:40.615Z,45.93
2018-07-20T03:48:09.145Z,41.20
2018-07-20T03:50:37.693Z,42.97
2018-07-20T03:53:06.306Z,40.57
2018-07-20T03:55:34.822Z,43.23
2018-07-20T03:58:03.329Z,36.40
2018-07-20T04:00:32.065Z,35.20
2018-07-20T04:03:00.581Z,30.80
2018-07-20T04:05:29.074Z,30.57
2018-07-20T04:07:57.580Z,29.23
2018-07-20T04:10:26.243Z,27.87
2018-07-20T04:12:54.903Z,24.43
2018-07-20T04:15:23.415Z,37.93
2018-07-20T04:17:51.972Z,37.97
2018-07-20T04:20:20.182Z,42.83
2018-07-20T04:22:48.652Z,43.67
2018-07-20T04:25:17.238Z,42.93
2018-07-20T04:27:45.707Z,40.67
2018-07-20T04:30:15.141Z,43.13
2018-07-20T04:32:43.704Z,40.13
2018-07-20T04:35:12.320Z,42.33
2018-07-20T04:37:40.875Z,42.60
2018-07-20T04:40:09.593Z,38.63
2018-07-20T04:42:38.092Z,43.80
2018-07-20T04:45:06.823Z,41.00
2018-07-20T04:47:35.348Z,43.53
2018-07-20T04:50:04.631Z,43.43
2018-07-20T04:52:33.119Z,44.63
2018-07-20T04:55:01.605Z,44.37
2018-07-20T04:57:30.222Z,44.60
2018-07-20T04:59:58.925Z,45.13
2018-07-20T05:02:27.516Z,43.97
2018-07-20T05:04:56.073Z,39.87
2018-07-20T05:07:24.604Z,42.00
2018-07-20T05:09:53.102Z,38.47
2018-07-20T05:12:21.741Z,36.40
2018-07-20T05:14:50.271Z,38.60
2018-07-20T05:17:18.764Z,38.57
2018-07-20T05:19:47.280Z,55.83
2018-07-20T05:22:15.474Z,72.10
2018-07-20T05:24:43.735Z,72.73
2018-07-20T05:27:11.906Z,91.30
2018-07-20T05:29:40.436Z,105.10
2018-07-20T05:32:08.905Z,114.37
2018-07-20T05:34:37.522Z,124.37
2018-07-20T05:37:06.040Z,142.50
2018-07-20T05:39:34.556Z,166.43
2018-07-20T05:42:03.101Z,159.40
2018-07-20T05:44:31.577Z,214.03
2018-07-20T05:47:00.095Z,235.67
2018-07-20T05:49:28.752Z,158.30
2018-07-20T05:51:57.253Z,103.37
2018-07-20T05:54:25.744Z,58.03
2018-07-20T05:56:54.265Z,39.60
2018-07-20T05:59:23.003Z,10.13
2018-07-20T06:01:51.496Z,8.03
2018-07-20T06:04:19.959Z,13.13
2018-07-20T06:06:48.218Z,23.77
2018-07-20T06:09:16.704Z,38.80
2018-07-20T06:11:45.195Z,22.53
2018-07-20T06:14:13.751Z,9.20
2018-07-20T06:16:42.199Z,15.83
2018-07-20T06:19:10.726Z,26.83
2018-07-20T06:21:39.260Z,22.73
2018-07-20T06:24:07.785Z,21.47
2018-07-20T06:26:36.332Z,19.83
2018-07-20T06:29:04.856Z,14.10
2018-07-20T06:31:33.364Z,14.10
2018-07-20T06:34:01.592Z,13.50
2018-07-20T06:36:30.065Z,12.50
2018-07-20T06:38:58.568Z,8.83
2018-07-20T06:41:27.108Z,63.20
2018-07-20T06:43:56.193Z,79.70
2018-07-20T06:46:24.652Z,67.53
2018-07-20T06:48:53.167Z,47.60
2018-07-20T06:51:21.660Z,6.97
2018-07-20T06:53:50.352Z,6.03
2018-07-20T06:56:19.001Z,6.17
2018-07-20T06:58:47.221Z,7.77
2018-07-20T07:01:15.739Z,9.30
2018-07-20T07:03:44.193Z,8.60
2018-07-20T07:06:12.725Z,11.07
2018-07-20T07:08:41.191Z,10.60
2018-07-20T07:11:09.926Z,15.27
2018-07-20T07:13:38.442Z,12.40
2018-07-20T07:16:07.358Z,32.13
2018-07-20T07:18:35.930Z,41.13
2018-07-20T07:21:04.462Z,45.23
2018-07-20T07:23:33.352Z,41.33
2018-07-20T07:26:02.029Z,33.87
2018-07-20T07:28:30.251Z,38.40
2018-07-20T07:30:58.755Z,20.73
2018-07-20T07:33:27.636Z,5.30
2018-07-20T07:35:56.180Z,4.57
2018-07-20T07:38:25.033Z,6.07
2018-07-20T07:40:53.509Z,7.30
2018-07-20T07:43:22.017Z,35.70
2018-07-20T07:45:50.487Z,66.27
2018-07-20T07:48:19.019Z,113.43
2018-07-20T07:50:47.580Z,215.73
2018-07-20T07:53:16.064Z,273.27
2018-07-20T07:55:44.536Z,269.73
2018-07-20T07:58:13.084Z,248.37
2018-07-20T08:00:41.605Z,241.40
2018-07-20T08:03:10.187Z,203.87
2018-07-20T08:05:38.721Z,143.40
2018-07-20T08:08:07.210Z,94.53
2018-07-20T08:10:35.701Z,64.60
2018-07-20T08:13:04.216Z,39.07
2018-07-20T08:15:32.692Z,21.57
2018-07-20T08:18:01.197Z,17.87
2018-07-20T08:20:29.696Z,17.47
2018-07-20T08:22:58.284Z,12.47
2018-07-20T08:25:26.714Z,8.80
2018-07-20T08:27:55.266Z,6.87
2018-07-20T08:30:23.784Z,6.37
2018-07-20T08:32:52.304Z,7.60
2018-07-20T08:35:20.858Z,11.30
2018-07-20T08:37:49.411Z,16.83
2018-07-20T08:40:17.931Z,19.47
2018-07-20T08:42:46.420Z,21.67
2018-07-20T08:45:14.967Z,20.13
2018-07-20T08:47:43.434Z,19.07
2018-07-20T08:50:12.236Z,20.67
2018-07-20T08:52:40.777Z,20.17
2018-07-20T08:55:09.244Z,29.23
2018-07-20T08:57:37.840Z,34.80
2018-07-20T09:00:06.924Z,29.17
2018-07-20T09:02:35.367Z,27.57
2018-07-20T09:05:04.448Z,27.17
2018-07-20T09:07:32.969Z,27.03
2018-07-20T09:10:07.196Z,32.40
2018-07-20T09:12:35.857Z,37.50
2018-07-20T09:15:04.118Z,51.30
2018-07-20T09:17:32.800Z,50.93
2018-07-20T09:20:01.311Z,50.40
2018-07-20T09:22:29.884Z,51.17
2018-07-20T09:24:58.465Z,51.27
2018-07-20T09:27:26.959Z,46.40
2018-07-20T09:29:55.579Z,51.00
2018-07-20T09:32:24.123Z,51.20
2018-07-20T09:34:52.371Z,54.13
2018-07-20T09:37:20.912Z,53.60
2018-07-20T09:39:49.464Z,33.73
2018-07-20T09:42:18.000Z,41.00
2018-07-20T09:44:46.502Z,34.50
2018-07-20T09:47:15.023Z,31.60
2018-07-20T09:49:43.216Z,31.07
2018-07-20T09:52:19.093Z,17.70
2018-07-20T09:54:50.484Z,22.43
2018-07-20T09:57:24.050Z,16.30
2018-07-20T09:59:59.080Z,15.03
2018-07-20T10:02:33.305Z,10.23
2018-07-20T10:05:06.533Z,7.03
2018-07-20T10:07:41.577Z,7.93
2018-07-20T10:10:15.834Z,6.07
2018-07-20T10:12:48.805Z,5.93
2018-07-20T10:15:21.102Z,4.77
2018-07-20T10:17:52.997Z,4.40
2018-07-20T10:20:25.429Z,4.53
2018-07-20T10:22:59.561Z,4.07
2018-07-20T10:25:33.696Z,4.70
2018-07-20T10:28:05.431Z,4.63
2018-07-20T10:30:37.403Z,4.80
2018-07-20T10:33:11.418Z,4.20
2018-07-20T10:35:47.259Z,5.90
2018-07-20T10:38:18.545Z,7.83
2018-07-20T10:40:51.207Z,8.53
2018-07-20T10:43:23.421Z,12.23
2018-07-20T10:45:55.370Z,10.17
2018-07-20T10:48:27.978Z,17.17
2018-07-20T10:51:01.589Z,20.00
2018-07-20T10:53:35.805Z,28.83
2018-07-20T10:56:09.185Z,25.30
2018-07-20T10:58:44.589Z,60.53
2018-07-20T11:01:16.813Z,80.97
2018-07-20T11:03:52.032Z,67.97
2018-07-20T11:06:23.116Z,72.13
2018-07-20T11:08:53.728Z,82.37
2018-07-20T11:11:25.979Z,88.90
2018-07-20T11:13:59.078Z,72.50
2018-07-20T11:16:32.360Z,81.40
2018-07-20T11:19:08.291Z,88.87
2018-07-20T11:21:42.861Z,86.47
2018-07-20T11:24:12.893Z,86.47
2018-07-20T11:26:44.927Z,98.50
2018-07-20T11:29:19.473Z,112.30
2018-07-20T11:31:50.421Z,113.67
2018-07-20T11:34:21.744Z,115.10
2018-07-20T11:36:53.893Z,110.50
2018-07-20T11:39:25.773Z,118.53
2018-07-20T11:41:58.083Z,114.07
2018-07-20T11:44:33.303Z,114.53
2018-07-20T11:47:06.658Z,115.67
2018-07-20T11:49:39.165Z,111.87
2018-07-20T11:52:12.439Z,120.20
2018-07-20T11:54:44.559Z,122.67
2018-07-20T11:57:17.627Z,120.67
2018-07-20T11:59:52.150Z,119.77
2018-07-20T12:02:27.272Z,111.73
2018-07-20T12:05:00.389Z,102.30
2018-07-20T12:07:31.837Z,95.93
2018-07-20T12:10:03.660Z,87.67
2018-07-20T12:12:35.963Z,79.63
2018-07-20T12:15:13.662Z,75.77
2018-07-20T12:17:44.401Z,72.60
2018-07-20T12:20:16.353Z,70.77
2018-07-20T12:22:50.664Z,69.10
2018-07-20T12:25:21.329Z,62.50
2018-07-20T12:27:52.244Z,60.07
2018-07-20T12:30:22.986Z,54.60
2018-07-20T12:32:53.224Z,51.13
2018-07-20T12:35:25.373Z,46.83
2018-07-20T12:38:02.774Z,41.93
2018-07-20T12:40:34.741Z,40.07
2018-07-20T12:43:10.749Z,35.40
2018-07-20T12:45:44.071Z,35.43
2018-07-20T12:48:15.201Z,32.00
2018-07-20T12:50:47.789Z,31.13
2018-07-20T12:53:22.509Z,34.83
2018-07-20T12:55:51.116Z,34.47
2018-07-20T12:58:19.635Z,30.47
2018-07-20T13:00:48.152Z,38.13
2018-07-20T13:03:16.685Z,37.53
2018-07-20T13:05:45.159Z,33.13
2018-07-20T13:08:13.681Z,36.13
2018-07-20T13:10:42.227Z,34.70
2018-07-20T13:13:11.005Z,30.10
2018-07-20T13:15:39.505Z,24.27
2018-07-20T13:18:08.115Z,15.90
2018-07-20T13:20:36.560Z,13.80
2018-07-20T13:23:05.103Z,17.07
2018-07-20T13:25:33.279Z,9.47
2018-07-20T13:28:01.796Z,8.67
2018-07-20T13:30:30.269Z,8.10
2018-07-20T13:32:58.779Z,7.67
2018-07-20T13:35:27.335Z,7.63
2018-07-20T13:37:55.855Z,6.80
2018-07-20T13:40:24.401Z,6.00
2018-07-20T13:42:53.049Z,6.00
2018-07-20T13:45:21.357Z,6.80
2018-07-20T13:47:49.820Z,6.37
2018-07-20T13:50:18.341Z,6.47
2018-07-20T13:52:46.969Z,5.70
2018-07-20T13:55:15.388Z,5.70
2018-07-20T13:57:43.861Z,6.70
2018-07-20T14:00:12.392Z,7.63
2018-07-20T14:02:40.868Z,6.53
2018-07-20T14:05:09.408Z,6.60
2018-07-20T14:07:37.888Z,6.53
2018-07-20T14:10:06.444Z,8.27
2018-07-20T14:12:34.670Z,12.97
2018-07-20T14:15:03.215Z,9.93
2018-07-20T14:17:31.438Z,8.50
2018-07-20T14:19:59.906Z,8.77
2018-07-20T14:22:28.491Z,9.53
2018-07-20T14:24:57.025Z,11.23
2018-07-20T14:27:25.504Z,8.73
2018-07-20T14:29:54.030Z,18.37
2018-07-20T14:32:22.509Z,17.87
2018-07-20T14:34:51.015Z,33.10
2018-07-20T14:37:19.634Z,56.00
2018-07-20T14:39:48.268Z,79.83
2018-07-20T14:42:16.812Z,74.27
2018-07-20T14:44:45.308Z,82.97
2018-07-20T14:47:13.894Z,83.23
2018-07-20T14:49:42.377Z,87.13
2018-07-20T14:52:10.556Z,91.50
2018-07-20T14:54:39.060Z,66.60
2018-07-20T14:57:07.567Z,52.37
2018-07-20T14:59:36.093Z,57.60
2018-07-20T15:02:04.673Z,60.50
2018-07-20T15:04:33.185Z,51.73
2018-07-20T15:07:01.719Z,56.93
2018-07-20T15:09:30.208Z,51.60
2018-07-20T15:11:58.747Z,66.93
2018-07-20T15:14:27.258Z,66.20
2018-07-20T15:16:55.785Z,86.23
2018-07-20T15:19:24.260Z,103.27
2018-07-20T15:21:52.807Z,109.43
2018-07-20T15:24:21.287Z,117.17
2018-07-20T15:26:49.768Z,111.17
2018-07-20T15:29:18.278Z,112.77
2018-07-20T15:31:46.509Z,101.13
2018-07-20T15:34:14.996Z,100.07
2018-07-20T15:36:43.538Z,107.23
2018-07-20T15:39:12.460Z,118.73
2018-07-20T15:41:41.060Z,122.53
2018-07-20T15:44:09.540Z,124.67
2018-07-20T15:46:38.205Z,123.20
2018-07-20T15:49:06.710Z,110.43
2018-07-20T15:53:35.053Z,87.70
2018-07-20T15:54:03.783Z,63.97
2018-07-20T15:56:33.841Z,51.07
2018-07-20T15:59:02.403Z,35.37
2018-07-20T16:01:30.899Z,29.87
2018-07-20T16:03:59.133Z,30.57
2018-07-20T16:06:27.648Z,25.70
2018-07-20T16:08:56.109Z,13.87
2018-07-20T16:11:24.617Z,14.03
2018-07-20T16:13:53.305Z,9.73
2018-07-20T16:16:21.823Z,11.37
2018-07-20T16:18:50.338Z,11.10
2018-07-20T16:21:18.844Z,9.33
2018-07-20T16:23:47.384Z,6.53
2018-07-20T16:26:16.017Z,5.93
2018-07-20T16:28:44.501Z,8.90
2018-07-20T16:31:13.189Z,13.63
2018-07-20T16:33:41.692Z,25.07
2018-07-20T16:36:10.053Z,36.63
2018-07-20T16:38:38.243Z,44.77
2018-07-20T16:41:07.083Z,51.97
2018-07-20T16:43:35.604Z,55.70
2018-07-20T16:46:04.149Z,61.87
2018-07-20T16:48:32.725Z,65.33
2018-07-20T16:51:01.201Z,70.27
2018-07-20T16:53:29.724Z,75.27
2018-07-20T16:58:47.029Z,79.73
2018-07-20T17:01:18.598Z,80.73
2018-07-20T17:03:50.544Z,83.60
2018-07-20T17:06:20.490Z,84.00
2018-07-20T17:08:52.326Z,87.13
2018-07-20T17:11:24.840Z,88.00
2018-07-20T17:13:55.144Z,86.47
2018-07-20T17:16:28.010Z,88.70
2018-07-20T17:18:58.405Z,83.83
2018-07-20T17:21:32.100Z,83.37
2018-07-20T17:24:04.853Z,83.40
2018-07-20T17:26:37.279Z,85.93
2018-07-20T17:29:08.686Z,83.80
2018-07-20T17:31:40.674Z,82.20
2018-07-20T17:34:12.285Z,78.90
2018-07-20T17:36:43.767Z,79.63
2018-07-20T17:39:14.225Z,75.23
2018-07-20T17:41:44.817Z,75.43
2018-07-20T17:44:20.890Z,71.23
2018-07-20T17:46:52.873Z,69.47
2018-07-20T17:49:24.426Z,71.07
2018-07-20T17:51:56.435Z,71.20
2018-07-20T17:54:30.329Z,67.73
2018-07-20T18:02:39.739Z,61.87
2018-07-20T18:05:27.331Z,61.73
2018-07-20T18:14:01.085Z,64.33
2018-07-20T18:16:39.268Z,64.30
2018-07-20T18:19:36.774Z,66.03
2018-07-20T18:24:56.392Z,64.27
2018-07-20T18:27:31.481Z,67.57
2018-07-20T18:30:13.898Z,67.03
2018-07-20T18:33:00.168Z,68.07
2018-07-20T18:35:36.028Z,71.57
2018-07-20T18:38:32.019Z,63.07
2018-07-20T18:41:16.541Z,59.03
2018-07-20T18:43:53.306Z,59.23
2018-07-20T18:46:29.192Z,55.73
2018-07-20T18:49:08.794Z,41.70
2018-07-20T18:54:41.329Z,9.80
2018-07-20T18:57:24.681Z,5.60
2018-07-20T18:59:58.652Z,7.33
2018-07-20T19:02:55.947Z,13.30
2018-07-20T19:05:35.853Z,25.23
2018-07-20T19:08:15.256Z,37.53
2018-07-20T19:10:50.576Z,43.07
2018-07-20T19:13:45.980Z,41.30
2018-07-20T19:16:26.138Z,25.67
2018-07-20T19:19:06.771Z,20.43
2018-07-20T19:21:48.316Z,19.73
2018-07-20T19:24:26.340Z,17.83
2018-07-20T19:29:44.130Z,10.43
2018-07-20T19:35:13.866Z,18.77
2018-07-20T19:37:52.772Z,18.27
2018-07-20T19:40:36.886Z,13.17
2018-07-20T19:43:15.917Z,12.77
2018-07-20T19:46:03.698Z,21.23
2018-07-20T19:48:38.330Z,39.23
2018-07-20T19:51:13.310Z,86.00
2018-07-20T19:53:50.717Z,156.63
2018-07-20T19:56:22.606Z,219.33
2018-07-20T19:58:55.304Z,202.57
2018-07-20T20:01:30.119Z,150.70
2018-07-20T20:04:03.815Z,108.03
2018-07-20T20:06:39.057Z,66.37
2018-07-20T20:09:09.963Z,49.80
2018-07-20T20:11:39.736Z,34.87
2018-07-20T20:14:08.681Z,24.43
2018-07-20T20:16:37.781Z,18.17
2018-07-20T20:19:06.702Z,14.77
2018-07-20T20:21:36.761Z,13.57
2018-07-20T20:24:05.781Z,12.13
2018-07-20T20:26:34.377Z,12.40
2018-07-20T20:29:03.040Z,11.63
2018-07-20T20:31:31.682Z,11.53
2018-07-20T20:34:00.572Z,11.20
2018-07-20T20:36:29.244Z,11.47
2018-07-20T20:38:57.846Z,13.70
2018-07-20T20:41:26.682Z,17.33
2018-07-20T20:43:55.363Z,20.73
2018-07-20T20:46:24.696Z,19.50
2018-07-20T20:48:53.537Z,19.87
2018-07-20T20:51:22.161Z,17.00
2018-07-20T20:53:51.035Z,22.83
2018-07-20T20:56:19.669Z,28.43
2018-07-20T20:58:48.362Z,47.80
2018-07-20T21:01:17.081Z,61.40
2018-07-20T21:03:45.479Z,73.43
2018-07-20T21:06:14.316Z,80.13
2018-07-20T21:08:43.680Z,75.97
2018-07-20T21:11:12.939Z,69.13
2018-07-20T21:13:41.619Z,74.57
2018-07-20T21:16:10.205Z,74.70
2018-07-20T21:18:39.104Z,68.03
2018-07-20T21:21:07.762Z,65.63
2018-07-20T21:23:36.353Z,62.17
2018-07-20T21:26:04.600Z,60.17
2018-07-20T21:28:33.297Z,56.90
2018-07-20T21:31:01.838Z,55.60
2018-07-20T21:33:30.439Z,50.27
2018-07-20T21:35:59.001Z,46.33
2018-07-20T21:38:27.275Z,48.93
2018-07-20T21:40:55.841Z,45.67
2018-07-20T21:43:24.388Z,40.37
2018-07-20T21:45:52.969Z,43.33
2018-07-20T21:48:21.542Z,42.80
2018-07-20T21:50:50.212Z,44.30
2018-07-20T21:53:18.431Z,42.47
2018-07-20T21:55:47.002Z,43.73
2018-07-20T21:58:16.243Z,39.57
2018-07-20T22:00:44.816Z,36.67
2018-07-20T22:03:13.410Z,41.50
2018-07-20T22:05:42.124Z,39.40
2018-07-20T22:08:10.901Z,38.83
2018-07-20T22:10:39.206Z,41.97
2018-07-20T22:13:07.957Z,42.53
2018-07-20T22:15:36.544Z,43.23
2018-07-20T22:18:05.383Z,42.60
2018-07-20T22:20:36.265Z,40.60
2018-07-20T22:23:04.822Z,38.80
2018-07-20T22:25:33.427Z,38.00
2018-07-20T22:28:02.029Z,36.03
2018-07-20T22:30:30.949Z,37.50
2018-07-20T22:32:59.502Z,33.50
2018-07-20T22:35:28.106Z,29.00
2018-07-20T22:37:57.861Z,28.40
2018-07-20T22:40:26.493Z,16.97
2018-07-20T22:42:56.027Z,17.63
2018-07-20T22:45:24.982Z,17.10
2018-07-20T22:47:53.585Z,17.37
2018-07-20T22:50:21.848Z,17.07
2018-07-20T22:52:50.387Z,14.77
2018-07-20T22:55:18.981Z,15.90
2018-07-20T22:57:47.541Z,13.97
2018-07-20T23:00:16.108Z,14.73
2018-07-20T23:02:44.659Z,14.60
2018-07-20T23:05:13.228Z,13.73
2018-07-20T23:07:41.797Z,14.60
2018-07-20T23:10:10.387Z,14.70
2018-07-20T23:12:38.917Z,14.63
2018-07-20T23:15:07.509Z,17.30
2018-07-20T23:17:36.058Z,19.37
2018-07-20T23:20:04.813Z,22.27
2018-07-20T23:22:33.373Z,18.83
2018-07-20T23:25:01.934Z,27.07
2018-07-20T23:27:30.523Z,30.30
2018-07-20T23:29:59.123Z,30.17
2018-07-20T23:32:27.738Z,28.83
2018-07-20T23:34:56.309Z,31.87
2018-07-20T23:37:24.894Z,37.20
2018-07-20T23:39:53.429Z,28.23
2018-07-20T23:42:22.026Z,23.17
2018-07-20T23:44:50.566Z,23.67
2018-07-20T23:47:19.176Z,25.93
2018-07-20T23:49:47.749Z,26.57
2018-07-20T23:52:16.319Z,22.47
2018-07-20T23:54:45.306Z,20.83
2018-07-20T23:57:13.955Z,21.43
2018-07-20T23:59:42.506Z,25.37
